Time;durP1;ratioP1;P1;durP2;ratioP2;P2;SDS_P1;SDS_P2;PMS_P1;PMS_P2;Temp;Humidity;BMP_temperature;BMP_pressure;BME280_temperature;BME280_humidity;BME280_pressure;Samples;Min_cycle;Max_cycle;Signal;HPM_P1;HPM_P2
2022/12/19 00:00:21;;;;;;;44.77;16.33;;;-3.00;63.30;;;;;;4971028;28;46461;-63
2022/12/19 00:02:46;;;;;;;36.03;15.20;;;-2.80;64.10;;;;;;4971592;28;46440;-63
2022/12/19 00:05:12;;;;;;;47.80;17.67;;;-2.80;62.80;;;;;;4973237;28;46431;-63
2022/12/19 00:07:38;;;;;;;42.70;15.53;;;-2.70;62.70;;;;;;4971659;28;46228;-63
2022/12/19 00:10:05;;;;;;;43.53;15.85;;;-2.70;62.30;;;;;;4972886;28;46403;-63
2022/12/19 00:12:30;;;;;;;41.85;16.33;;;-2.70;62.30;;;;;;4978430;28;46467;-63
2022/12/19 00:14:56;;;;;;;42.87;16.10;;;-2.70;62.20;;;;;;4973302;28;46442;-62
2022/12/19 00:17:22;;;;;;;38.60;16.90;;;-2.40;62.20;;;;;;4972826;28;46468;-63
2022/12/19 00:19:48;;;;;;;42.80;14.87;;;-2.60;62.10;;;;;;4969309;28;46360;-63
2022/12/19 00:22:13;;;;;;;35.17;15.70;;;-2.70;62.20;;;;;;4970486;28;46394;-63
2022/12/19 00:24:39;;;;;;;40.40;14.97;;;-2.80;62.30;;;;;;4972096;28;46379;-62
2022/12/19 00:27:04;;;;;;;41.80;15.90;;;-2.80;62.60;;;;;;4971953;28;46325;-62
2022/12/19 00:29:30;;;;;;;38.50;14.50;;;-2.80;62.80;;;;;;4987134;28;46562;-62
2022/12/19 00:31:57;;;;;;;42.67;16.70;;;-2.80;62.80;;;;;;4971322;28;46440;-62
2022/12/19 00:34:22;;;;;;;40.03;14.15;;;-2.80;62.80;;;;;;4973836;28;46308;-63
2022/12/19 00:36:48;;;;;;;38.10;15.70;;;-2.80;62.90;;;;;;4973476;28;46479;-63
2022/12/19 00:39:14;;;;;;;36.20;14.30;;;-2.70;62.50;;;;;;4973583;28;46379;-62
2022/12/19 00:41:41;;;;;;;41.00;16.03;;;-2.60;62.50;;;;;;4970318;28;46447;-63
2022/12/19 00:44:13;;;;;;;38.85;15.90;;;-2.60;62.50;;;;;;4971163;28;46378;-63
2022/12/19 00:46:38;;;;;;;43.67;15.52;;;-2.70;62.50;;;;;;4973919;28;46765;-62
2022/12/19 00:49:04;;;;;;;40.53;15.50;;;-2.50;62.50;;;;;;4976206;28;45924;-63
2022/12/19 00:51:32;;;;;;;39.17;15.95;;;-2.50;62.10;;;;;;4966386;28;46432;-63
2022/12/19 00:53:58;;;;;;;47.72;17.40;;;-2.40;61.70;;;;;;4971536;28;47680;-63
2022/12/19 00:56:32;;;;;;;46.28;18.48;;;-2.30;61.60;;;;;;4973804;28;46345;-62
2022/12/19 00:58:58;;;;;;;45.85;17.35;;;-2.40;62.10;;;;;;4970155;28;46777;-62
2022/12/19 01:01:26;;;;;;;42.22;16.17;;;-2.20;60.80;;;;;;4969357;28;46425;-63
2022/12/19 01:03:53;;;;;;;42.22;17.58;;;-2.20;61.70;;;;;;4971387;28;47419;-62
2022/12/19 01:06:19;;;;;;;38.45;16.48;;;-2.20;61.80;;;;;;4967345;28;46748;-63
2022/12/19 01:08:45;;;;;;;36.05;14.60;;;-2.20;61.80;;;;;;4970428;28;46669;-62
2022/12/19 01:11:11;;;;;;;42.97;14.97;;;-2.10;61.70;;;;;;4970757;28;46288;-62
2022/12/19 01:13:38;;;;;;;44.10;16.98;;;-2.00;61.80;;;;;;4969050;28;46390;-62
2022/12/19 01:16:10;;;;;;;40.53;15.70;;;-2.00;61.80;;;;;;4970937;28;45956;-62
2022/12/19 01:18:36;;;;;;;46.30;17.42;;;-2.00;61.70;;;;;;4968884;28;46490;-62
2022/12/19 01:21:05;;;;;;;36.63;16.40;;;-2.00;61.80;;;;;;4970336;28;46452;-63
2022/12/19 01:23:31;;;;;;;37.22;15.55;;;-2.00;62.00;;;;;;4971461;28;47407;-62
2022/12/19 01:25:57;;;;;;;43.77;16.20;;;-2.00;61.90;;;;;;4967220;28;45977;-63
2022/12/19 01:28:23;;;;;;;35.85;15.45;;;-1.90;62.00;;;;;;4970419;28;45875;-62
2022/12/19 01:30:49;;;;;;;40.50;16.30;;;-1.90;62.90;;;;;;4971553;28;46112;-64
2022/12/19 01:33:16;;;;;;;38.60;15.73;;;-2.00;62.20;;;;;;4967738;28;46685;-63
2022/12/19 01:35:44;;;;;;;41.00;16.50;;;-1.90;62.30;;;;;;4968233;28;46370;-63
2022/12/19 01:38:13;;;;;;;42.08;15.95;;;-1.90;62.10;;;;;;4967368;28;46339;-63
2022/12/19 01:40:39;;;;;;;39.03;15.95;;;-1.90;62.20;;;;;;4967368;28;46613;-63
2022/12/19 01:43:05;;;;;;;43.20;15.80;;;-2.00;62.20;;;;;;4968272;28;46535;-62
2022/12/19 01:45:33;;;;;;;38.13;16.05;;;-2.00;62.30;;;;;;4968270;28;46398;-63
2022/12/19 01:48:12;;;;;;;35.80;15.77;;;-2.10;62.30;;;;;;4969202;28;46233;-64
2022/12/19 01:50:53;;;;;;;38.28;15.88;;;-2.10;62.20;;;;;;4966967;28;46356;-63
2022/12/19 01:53:21;;;;;;;49.92;16.50;;;-1.90;61.80;;;;;;4969804;28;48029;-63
2022/12/19 01:55:47;;;;;;;37.28;15.63;;;-2.00;61.60;;;;;;4969285;28;46457;-63
2022/12/19 01:58:13;;;;;;;35.83;15.03;;;-2.10;62.00;;;;;;4969219;28;46400;-62
2022/12/19 02:00:43;;;;;;;38.10;16.45;;;-2.20;63.50;;;;;;4969532;28;46451;-63
2022/12/19 02:03:18;;;;;;;44.00;17.00;;;-2.20;62.40;;;;;;4967605;28;48122;-63
2022/12/19 02:05:44;;;;;;;34.72;15.23;;;-2.40;62.50;;;;;;4966270;28;46021;-63
2022/12/19 02:08:11;;;;;;;33.17;15.38;;;-2.40;62.60;;;;;;4967678;28;46439;-63
2022/12/19 02:10:37;;;;;;;32.20;13.70;;;-2.30;62.40;;;;;;4970216;28;46718;-63
2022/12/19 02:13:03;;;;;;;43.20;15.67;;;-2.20;62.20;;;;;;4971005;28;46755;-63
2022/12/19 02:15:38;;;;;;;35.38;14.68;;;-2.20;62.30;;;;;;4965755;28;46740;-63
2022/12/19 02:18:30;;;;;;;35.83;14.75;;;-2.30;62.30;;;;;;4973297;28;46506;-62
2022/12/19 02:21:10;;;;;;;38.33;15.43;;;-2.30;62.30;;;;;;4972683;28;46515;-63
2022/12/19 02:24:08;;;;;;;36.42;16.20;;;-2.30;62.00;;;;;;4971695;28;46553;-62
2022/12/19 02:26:55;;;;;;;30.77;15.02;;;-2.30;62.00;;;;;;4971164;28;46462;-62
2022/12/19 02:30:04;;;;;;;40.78;15.35;;;-2.20;61.90;;;;;;4970384;28;46658;-62
2022/12/19 02:32:44;;;;;;;29.55;14.43;;;-2.10;61.80;;;;;;4973251;28;46423;-63
2022/12/19 02:35:20;;;;;;;34.58;14.30;;;-2.10;61.50;;;;;;4973060;28;46499;-62
2022/12/19 02:37:51;;;;;;;33.17;13.23;;;-2.00;61.10;;;;;;4990170;28;46473;-63
2022/12/19 02:40:25;;;;;;;32.80;13.65;;;-1.90;61.10;;;;;;4971047;28;46428;-63
2022/12/19 02:42:57;;;;;;;38.80;15.38;;;-1.90;60.70;;;;;;4969864;28;46479;-62
2022/12/19 02:45:25;;;;;;;32.08;15.40;;;-1.80;60.50;;;;;;4973756;28;47458;-62
2022/12/19 02:47:51;;;;;;;33.90;15.15;;;-1.70;60.30;;;;;;4968286;28;46738;-64
2022/12/19 02:50:17;;;;;;;37.37;14.77;;;-1.70;60.30;;;;;;4972151;28;46425;-64
2022/12/19 02:52:45;;;;;;;33.40;14.43;;;-1.70;61.50;;;;;;4969542;28;46541;-63
2022/12/19 02:55:22;;;;;;;33.13;14.00;;;-1.80;60.30;;;;;;4971885;28;46485;-63
2022/12/19 02:57:47;;;;;;;32.15;15.27;;;-1.70;60.40;;;;;;4973296;28;46582;-63
2022/12/19 03:00:19;;;;;;;34.63;14.77;;;-1.80;60.20;;;;;;4968762;28;46718;-64
2022/12/19 03:03:11;;;;;;;36.85;15.85;;;-1.80;60.10;;;;;;4973145;28;46350;-64
2022/12/19 03:06:08;;;;;;;36.67;14.77;;;-1.80;60.20;;;;;;4972748;28;47708;-64
2022/12/19 03:08:47;;;;;;;32.63;15.40;;;-1.90;60.30;;;;;;4972427;28;46439;-63
2022/12/19 03:11:14;;;;;;;35.15;14.90;;;-1.90;59.70;;;;;;4973576;28;46766;-65
2022/12/19 03:14:04;;;;;;;33.28;14.50;;;-1.90;60.70;;;;;;4973900;28;46706;-64
2022/12/19 03:16:32;;;;;;;33.65;15.45;;;-1.90;60.60;;;;;;4971801;28;46631;-64
2022/12/19 03:18:58;;;;;;;36.75;15.35;;;-1.90;60.70;;;;;;4976127;28;46467;-63
2022/12/19 03:21:37;;;;;;;33.47;14.90;;;-2.00;59.90;;;;;;4971084;28;46563;-64
2022/12/19 03:24:05;;;;;;;41.40;15.95;;;-2.00;60.80;;;;;;4969633;28;46631;-65
2022/12/19 03:26:37;;;;;;;40.83;15.30;;;-2.00;60.80;;;;;;4970638;28;46443;-64
2022/12/19 03:29:12;;;;;;;39.85;14.57;;;-2.00;61.00;;;;;;4968798;28;46439;-64
2022/12/19 03:31:39;;;;;;;38.22;14.73;;;-1.90;61.10;;;;;;4973884;28;46452;-64
2022/12/19 03:34:23;;;;;;;42.20;17.05;;;-1.90;61.10;;;;;;4972139;28;46486;-63
2022/12/19 03:36:54;;;;;;;42.92;15.73;;;-1.80;60.80;;;;;;4970856;28;47470;-64
2022/12/19 03:39:21;;;;;;;42.92;17.63;;;-1.70;60.60;;;;;;4972861;28;46489;-64
2022/12/19 03:44:38;;;;;;;45.53;17.02;;;-1.60;60.60;;;;;;4971172;28;46468;-64
2022/12/19 03:47:18;;;;;;;51.50;18.95;;;-1.60;60.70;;;;;;4973176;28;46457;-64
2022/12/19 03:49:45;;;;;;;40.95;16.65;;;-1.50;60.70;;;;;;4987248;28;46437;-64
2022/12/19 03:52:16;;;;;;;53.03;18.50;;;-1.50;60.50;;;;;;4969562;28;46126;-64
2022/12/19 03:54:51;;;;;;;38.40;15.68;;;-1.50;60.20;;;;;;4971236;28;46626;-63
2022/12/19 03:57:28;;;;;;;41.90;17.90;;;-1.50;60.50;;;;;;4969944;28;46328;-63
2022/12/19 04:00:05;;;;;;;43.58;17.80;;;-1.40;60.30;;;;;;4971002;28;46297;-64
2022/12/19 04:02:35;;;;;;;40.75;16.83;;;-1.40;60.30;;;;;;4968546;28;46473;-63
2022/12/19 04:05:04;;;;;;;47.40;16.90;;;-1.30;60.20;;;;;;4970887;28;46220;-64
2022/12/19 04:07:31;;;;;;;48.25;17.90;;;-1.30;60.00;;;;;;4971335;28;46583;-63
2022/12/19 04:10:00;;;;;;;41.00;16.17;;;-1.20;60.00;;;;;;4970815;28;46619;-63
2022/12/19 04:12:32;;;;;;;45.63;16.45;;;-1.20;60.00;;;;;;4970318;28;46389;-63
2022/12/19 04:14:58;;;;;;;45.63;17.27;;;-1.20;60.00;;;;;;4970429;28;46436;-63
2022/12/19 04:17:45;;;;;;;46.43;18.27;;;-1.30;60.00;;;;;;4972291;28;46702;-64
2022/12/19 04:20:16;;;;;;;41.10;16.20;;;-1.20;60.20;;;;;;4971933;28;46451;-64
2022/12/19 04:22:57;;;;;;;45.83;17.60;;;-1.30;60.10;;;;;;4969609;28;46408;-64
2022/12/19 04:25:29;;;;;;;48.72;17.85;;;-1.30;60.30;;;;;;4971324;28;46416;-64
2022/12/19 04:28:05;;;;;;;38.85;16.42;;;-1.30;60.30;;;;;;4969999;28;46760;-63
2022/12/19 04:30:32;;;;;;;45.58;17.08;;;-1.20;60.20;;;;;;4971826;28;46355;-63
2022/12/19 04:32:58;;;;;;;55.38;19.45;;;-1.20;60.20;;;;;;4969812;28;46451;-65
2022/12/19 04:35:24;;;;;;;41.77;17.03;;;-1.10;60.40;;;;;;4969711;28;46299;-63
2022/12/19 04:37:51;;;;;;;39.83;16.37;;;-0.90;60.20;;;;;;4971951;28;46583;-63
2022/12/19 04:40:17;;;;;;;35.83;17.13;;;-1.00;60.40;;;;;;4985467;28;46417;-64
2022/12/19 04:42:43;;;;;;;37.78;16.40;;;-1.00;60.50;;;;;;4970265;28;46409;-63
2022/12/19 04:45:09;;;;;;;34.97;15.50;;;-1.00;60.50;;;;;;4971593;28;46807;-64
2022/12/19 04:47:34;;;;;;;36.97;16.02;;;-0.90;60.30;;;;;;4970514;28;46551;-64
2022/12/19 04:50:00;;;;;;;35.13;16.47;;;-0.90;60.10;;;;;;4969791;28;46451;-64
2022/12/19 04:52:25;;;;;;;43.70;18.20;;;-0.90;60.00;;;;;;4965708;28;46356;-63
2022/12/19 04:54:51;;;;;;;39.27;14.87;;;-0.80;60.00;;;;;;4968493;28;46560;-64
2022/12/19 04:57:16;;;;;;;44.73;18.03;;;-0.80;59.70;;;;;;4966700;28;47329;-64
2022/12/19 04:59:42;;;;;;;36.90;15.13;;;-0.70;59.70;;;;;;4971941;28;46708;-64
2022/12/19 05:02:08;;;;;;;39.43;15.80;;;-0.70;59.70;;;;;;4966291;28;46464;-63
2022/12/19 05:04:33;;;;;;;39.33;15.70;;;-0.70;59.70;;;;;;4970353;28;46607;-64
2022/12/19 05:06:59;;;;;;;48.10;16.13;;;-0.70;59.70;;;;;;4972273;28;46580;-64
2022/12/19 05:09:25;;;;;;;39.80;15.57;;;-0.80;60.00;;;;;;4972798;28;46388;-64
2022/12/19 05:11:50;;;;;;;42.90;17.60;;;-0.80;60.20;;;;;;4971176;28;46456;-64
2022/12/19 05:14:16;;;;;;;40.80;16.13;;;-0.60;60.40;;;;;;4970963;28;46350;-64
2022/12/19 05:16:41;;;;;;;38.00;15.60;;;-0.20;60.50;;;;;;4971300;28;46612;-64
2022/12/19 05:19:07;;;;;;;43.97;16.67;;;-0.40;60.30;;;;;;4970710;28;46439;-64
2022/12/19 05:21:33;;;;;;;38.20;15.10;;;-0.40;60.20;;;;;;4975890;28;46441;-63
2022/12/19 05:23:58;;;;;;;33.57;15.33;;;-0.50;60.30;;;;;;4970673;28;46415;-64
2022/12/19 05:26:24;;;;;;;34.73;15.37;;;-0.50;60.50;;;;;;4973199;28;46465;-63
2022/12/19 05:28:50;;;;;;;40.33;16.73;;;-0.50;60.90;;;;;;4970245;28;46377;-64
2022/12/19 05:31:18;;;;;;;41.17;15.53;;;-0.60;59.90;;;;;;4973959;28;46469;-64
2022/12/19 05:33:45;;;;;;;33.20;15.60;;;-0.60;60.70;;;;;;4964548;28;46399;-64
2022/12/19 05:36:12;;;;;;;38.85;17.30;;;-0.60;61.00;;;;;;4967434;28;46552;-63
2022/12/19 05:38:38;;;;;;;34.95;14.38;;;-0.60;61.00;;;;;;4969976;28;46717;-63
2022/12/19 05:41:13;;;;;;;42.57;16.70;;;-0.60;61.10;;;;;;4970018;28;46483;-63
2022/12/19 05:43:39;;;;;;;40.42;16.75;;;-0.60;61.20;;;;;;4970099;28;46391;-63
2022/12/19 05:46:05;;;;;;;48.10;17.47;;;-0.70;61.50;;;;;;4971449;28;46632;-63
2022/12/19 05:48:32;;;;;;;42.58;15.85;;;-0.80;61.60;;;;;;4971145;28;46725;-64
2022/12/19 05:50:57;;;;;;;39.80;17.92;;;-0.80;61.90;;;;;;4968674;28;46368;-64
2022/12/19 05:53:23;;;;;;;40.97;18.10;;;-0.70;61.50;;;;;;4968286;28;46713;-64
2022/12/19 05:55:49;;;;;;;37.20;16.60;;;-0.70;61.30;;;;;;4968359;28;46659;-64
2022/12/19 05:58:15;;;;;;;32.88;14.85;;;-0.60;61.20;;;;;;4968480;28;46498;-64
2022/12/19 06:00:40;;;;;;;38.03;16.33;;;-0.50;60.50;;;;;;4971221;28;45868;-64
2022/12/19 06:03:06;;;;;;;41.57;16.00;;;-0.30;60.30;;;;;;4969807;28;46410;-64
2022/12/19 06:05:35;;;;;;;39.77;15.73;;;-0.20;60.00;;;;;;4971083;28;47453;-64
2022/12/19 06:08:00;;;;;;;37.33;15.32;;;-0.10;60.00;;;;;;4970883;28;46467;-65
2022/12/19 06:10:26;;;;;;;36.97;16.70;;;-0.10;60.00;;;;;;4967732;28;46441;-64
2022/12/19 06:12:51;;;;;;;39.57;16.20;;;-0.10;60.00;;;;;;4965170;28;46551;-64
2022/12/19 06:15:17;;;;;;;38.97;16.90;;;0.00;60.00;;;;;;4983568;28;48415;-64
2022/12/19 06:17:43;;;;;;;40.50;17.20;;;0.10;60.10;;;;;;4968306;28;46517;-64
2022/12/19 06:20:09;;;;;;;36.53;16.53;;;0.10;60.00;;;;;;4969495;28;46491;-64
2022/12/19 06:22:34;;;;;;;39.75;16.45;;;0.20;60.00;;;;;;4967419;28;46485;-64
2022/12/19 06:25:00;;;;;;;43.70;16.97;;;0.30;60.10;;;;;;4967030;28;47328;-64
2022/12/19 06:27:26;;;;;;;37.50;15.93;;;0.30;60.00;;;;;;4966696;28;46439;-64
2022/12/19 06:29:51;;;;;;;42.33;16.80;;;0.20;60.00;;;;;;4966190;28;46555;-64
2022/12/19 06:32:17;;;;;;;34.07;15.87;;;0.30;60.00;;;;;;4966705;28;46348;-64
2022/12/19 06:34:42;;;;;;;38.67;16.63;;;0.30;60.00;;;;;;4968655;28;46420;-63
2022/12/19 06:37:08;;;;;;;37.43;16.63;;;0.30;60.00;;;;;;4968972;28;46431;-64
2022/12/19 06:39:34;;;;;;;42.13;17.20;;;0.40;60.00;;;;;;4967867;28;46444;-64
2022/12/19 06:44:43;;;;;;;43.90;18.00;;;0.50;60.00;;;;;;4968827;28;46443;-65
2022/12/19 06:47:09;;;;;;;53.70;21.27;;;0.50;60.10;;;;;;4968957;28;46412;-65
2022/12/19 06:49:34;;;;;;;42.00;17.20;;;0.70;60.00;;;;;;4970919;28;46490;-65
2022/12/19 06:52:00;;;;;;;45.77;18.20;;;0.80;59.90;;;;;;4968072;28;46416;-65
2022/12/19 06:54:26;;;;;;;42.03;17.60;;;0.80;59.80;;;;;;4971303;28;46875;-65
2022/12/19 06:56:52;;;;;;;46.95;19.77;;;0.80;61.20;;;;;;4969035;28;46542;-66
2022/12/19 06:59:17;;;;;;;52.37;22.77;;;0.70;60.20;;;;;;4985772;28;46331;-65
2022/12/19 07:02:22;;;;;;;41.50;19.20;;;0.80;60.30;;;;;;4970572;28;46309;-65
2022/12/19 07:04:54;;;;;;;46.70;19.88;;;0.80;61.30;;;;;;4972544;28;46511;-66
2022/12/19 07:07:19;;;;;;;44.95;19.88;;;0.80;60.00;;;;;;4970046;28;46714;-64
2022/12/19 07:09:45;;;;;;;36.00;17.20;;;0.90;59.80;;;;;;4973617;28;46499;-65
2022/12/19 07:12:11;;;;;;;39.33;17.00;;;0.90;60.70;;;;;;4970750;28;45973;-65
2022/12/19 07:14:36;;;;;;;38.60;16.43;;;0.90;59.50;;;;;;4973705;28;46298;-64
2022/12/19 07:17:03;;;;;;;46.17;18.30;;;1.00;59.40;;;;;;4972935;28;46353;-65
2022/12/19 07:19:30;;;;;;;39.60;17.02;;;1.00;59.30;;;;;;4964568;28;46392;-65
2022/12/19 07:21:56;;;;;;;35.20;15.73;;;1.10;59.10;;;;;;4971030;28;46447;-63
2022/12/19 07:24:21;;;;;;;46.85;17.88;;;1.10;59.20;;;;;;4971087;28;46567;-63
2022/12/19 07:26:47;;;;;;;36.17;15.60;;;1.10;59.30;;;;;;4971614;28;46467;-62
2022/12/19 07:29:13;;;;;;;29.80;14.73;;;1.20;59.10;;;;;;4971666;28;46422;-63
2022/12/19 07:31:39;;;;;;;37.63;18.10;;;1.30;59.00;;;;;;4969959;28;46670;-62
2022/12/19 07:34:04;;;;;;;34.57;16.17;;;1.30;59.00;;;;;;4972579;28;47855;-63
2022/12/19 07:36:30;;;;;;;39.73;16.67;;;1.30;59.00;;;;;;4969098;28;45860;-63
2022/12/19 07:38:55;;;;;;;34.30;16.67;;;1.40;59.00;;;;;;4972275;28;46479;-62
2022/12/19 07:41:21;;;;;;;37.47;15.50;;;1.60;57.70;;;;;;4973716;28;45941;-63
2022/12/19 07:43:46;;;;;;;35.63;14.93;;;1.60;58.60;;;;;;4969147;28;48124;-65
2022/12/19 07:46:12;;;;;;;32.33;14.07;;;1.70;58.30;;;;;;4970776;28;46506;-63
2022/12/19 07:48:38;;;;;;;33.93;14.73;;;1.80;58.40;;;;;;4972064;28;46422;-63
2022/12/19 07:51:04;;;;;;;34.63;15.90;;;1.90;58.50;;;;;;4969737;28;46504;-63
2022/12/19 07:53:30;;;;;;;35.93;16.03;;;2.00;58.60;;;;;;4970641;28;48120;-63
2022/12/19 07:55:56;;;;;;;39.05;16.55;;;2.10;58.70;;;;;;4973179;28;45944;-63
2022/12/19 07:58:21;;;;;;;37.27;18.43;;;2.20;58.60;;;;;;4970817;28;46423;-63
2022/12/19 08:00:57;;;;;;;36.77;17.90;;;2.30;58.80;;;;;;4971000;28;46460;-64
2022/12/19 08:03:23;;;;;;;33.28;16.08;;;2.40;58.40;;;;;;4972767;28;46584;-63
2022/12/19 08:05:49;;;;;;;37.42;16.75;;;2.50;58.30;;;;;;4969155;28;46325;-63
2022/12/19 08:08:16;;;;;;;32.77;16.27;;;2.70;58.10;;;;;;4969558;28;46497;-62
2022/12/19 08:10:41;;;;;;;36.53;17.02;;;2.80;57.90;;;;;;4974698;28;46814;-62
2022/12/19 08:13:07;;;;;;;34.57;16.37;;;2.90;58.00;;;;;;4969333;28;46538;-64
2022/12/19 08:15:34;;;;;;;48.72;23.23;;;2.80;58.40;;;;;;4966554;28;46430;-63
2022/12/19 08:18:00;;;;;;;43.30;21.88;;;2.80;59.00;;;;;;4970032;28;46451;-63
2022/12/19 08:20:26;;;;;;;36.72;17.67;;;2.90;58.80;;;;;;4973817;28;46362;-62
2022/12/19 08:22:51;;;;;;;32.90;16.03;;;3.00;58.10;;;;;;4969374;28;47923;-63
2022/12/19 08:25:17;;;;;;;34.30;15.60;;;3.20;57.70;;;;;;4969342;28;46415;-63
2022/12/19 08:27:43;;;;;;;35.20;16.23;;;3.30;57.40;;;;;;4969521;28;46416;-65
2022/12/19 08:30:09;;;;;;;31.70;15.40;;;3.40;57.50;;;;;;4969704;28;46423;-64
2022/12/19 08:32:34;;;;;;;33.33;16.17;;;3.10;57.30;;;;;;4967050;28;47104;-65
2022/12/19 08:35:00;;;;;;;44.13;17.93;;;3.50;57.60;;;;;;4967858;28;46101;-64
2022/12/19 08:37:25;;;;;;;35.70;18.30;;;3.70;57.50;;;;;;4968962;28;46416;-63
2022/12/19 08:39:51;;;;;;;41.77;20.20;;;3.70;57.60;;;;;;4969361;28;46483;-63
2022/12/19 08:42:17;;;;;;;36.50;18.40;;;3.80;57.60;;;;;;4982188;28;48536;-63
2022/12/19 08:44:43;;;;;;;39.60;18.57;;;3.80;57.60;;;;;;4967669;28;46415;-63
2022/12/19 08:47:08;;;;;;;39.83;18.97;;;3.90;57.60;;;;;;4969582;28;46876;-64
2022/12/19 08:49:34;;;;;;;47.63;21.17;;;3.90;57.70;;;;;;4969366;28;46537;-65
2022/12/19 08:52:00;;;;;;;42.30;20.13;;;3.90;57.70;;;;;;4968275;28;47059;-63
2022/12/19 08:54:26;;;;;;;46.37;21.60;;;3.90;58.20;;;;;;4968054;28;46438;-63
2022/12/19 08:56:56;;;;;;;42.17;19.70;;;3.90;58.40;;;;;;4971193;28;45984;-63
2022/12/19 08:59:21;;;;;;;35.63;18.97;;;4.00;58.20;;;;;;4969422;28;46886;-63
2022/12/19 09:01:47;;;;;;;44.57;19.87;;;4.10;57.70;;;;;;4969334;28;47590;-65
2022/12/19 09:04:13;;;;;;;47.57;23.23;;;4.10;57.60;;;;;;4968324;28;46486;-64
2022/12/19 09:06:39;;;;;;;45.58;21.80;;;4.20;57.80;;;;;;4967883;28;45888;-64
2022/12/19 09:09:05;;;;;;;43.97;20.40;;;4.30;58.00;;;;;;4970893;28;46417;-63
2022/12/19 09:11:30;;;;;;;71.03;28.47;;;4.30;58.20;;;;;;4967918;28;46454;-63
2022/12/19 09:13:56;;;;;;;53.30;23.13;;;4.40;58.40;;;;;;4973192;28;46392;-63
2022/12/19 09:16:24;;;;;;;59.30;25.83;;;4.60;57.50;;;;;;4966197;28;46543;-65
2022/12/19 09:18:53;;;;;;;46.13;21.43;;;4.80;57.00;;;;;;4968848;28;47119;-64
2022/12/19 09:21:21;;;;;;;47.05;22.40;;;5.00;55.80;;;;;;4967098;28;46515;-65
2022/12/19 09:23:52;;;;;;;52.85;25.45;;;5.00;56.80;;;;;;4968325;28;46518;-64
2022/12/19 09:26:19;;;;;;;60.20;28.58;;;5.10;56.80;;;;;;4964827;28;46019;-64
2022/12/19 09:28:46;;;;;;;52.77;23.10;;;5.00;57.30;;;;;;4968638;28;46131;-65
2022/12/19 09:31:16;;;;;;;47.70;23.43;;;4.80;57.70;;;;;;4968115;28;46400;-65
2022/12/19 09:33:42;;;;;;;48.35;24.60;;;4.90;57.90;;;;;;4970017;28;46488;-64
2022/12/19 09:36:16;;;;;;;44.15;20.75;;;4.90;57.90;;;;;;4969932;28;46490;-65
2022/12/19 09:38:42;;;;;;;56.70;25.30;;;5.10;57.60;;;;;;4965827;28;46526;-64
2022/12/19 09:41:26;;;;;;;57.97;25.10;;;5.20;57.10;;;;;;4964730;28;48527;-65
2022/12/19 09:44:10;;;;;;;38.83;18.73;;;4.90;57.50;;;;;;4971487;28;46473;-65
2022/12/19 09:46:56;;;;;;;34.47;17.53;;;5.20;57.50;;;;;;4967317;28;46537;-65
2022/12/19 09:49:24;;;;;;;33.10;15.67;;;5.50;56.80;;;;;;4968332;28;46738;-64
2022/12/19 09:52:07;;;;;;;34.17;16.20;;;5.60;56.30;;;;;;4970284;28;46615;-65
2022/12/19 09:54:37;;;;;;;32.55;16.40;;;5.70;55.80;;;;;;4965897;28;46664;-65
2022/12/19 09:57:15;;;;;;;41.40;17.70;;;5.90;55.40;;;;;;4966115;28;46161;-64
2022/12/19 09:59:50;;;;;;;32.13;16.60;;;6.10;54.80;;;;;;4968027;28;46722;-65
2022/12/19 10:02:30;;;;;;;38.13;17.27;;;6.20;54.70;;;;;;4983159;28;49442;-66
2022/12/19 10:05:24;;;;;;;37.43;18.30;;;6.30;54.60;;;;;;4964873;28;46429;-65
2022/12/19 10:07:50;;;;;;;65.43;31.10;;;6.40;54.70;;;;;;4981668;28;46332;-64
2022/12/19 10:10:21;;;;;;;41.20;20.47;;;6.60;54.60;;;;;;4967018;28;46475;-65
2022/12/19 10:13:41;;;;;;;44.10;21.67;;;6.60;54.60;;;;;;4983806;28;48389;-65
2022/12/19 10:16:27;;;;;;;48.97;22.87;;;6.70;54.00;;;;;;4942852;28;46398;-65
2022/12/19 10:19:00;;;;;;;43.10;23.67;;;6.90;53.60;;;;;;4943562;28;46735;-65
2022/12/19 10:21:49;;;;;;;33.43;18.03;;;6.90;52.80;;;;;;4957863;28;46601;-64
2022/12/19 10:24:18;;;;;;;49.50;23.33;;;6.90;53.80;;;;;;4964283;28;46469;-65
2022/12/19 10:26:52;;;;;;;39.10;18.40;;;7.00;53.60;;;;;;4966198;28;46711;-65
2022/12/19 10:29:42;;;;;;;39.83;20.20;;;7.10;53.10;;;;;;4966753;28;46866;-66
2022/12/19 10:32:26;;;;;;;34.43;18.03;;;7.00;52.90;;;;;;4969742;28;46436;-63
2022/12/19 10:34:52;;;;;;;34.80;16.60;;;6.90;53.20;;;;;;4967862;28;47382;-65
2022/12/19 10:37:35;;;;;;;35.67;17.70;;;6.80;54.00;;;;;;4971262;28;46372;-65
2022/12/19 10:40:36;;;;;;;32.80;17.77;;;6.70;54.20;;;;;;4974187;28;46475;-65
2022/12/19 10:43:15;;;;;;;33.80;16.27;;;6.60;54.30;;;;;;4973397;28;45968;-64
2022/12/19 10:45:50;;;;;;;27.67;13.57;;;6.60;54.20;;;;;;4976231;28;46451;-64
2022/12/19 10:48:21;;;;;;;20.37;11.80;;;6.50;54.00;;;;;;4971391;28;46467;-64
2022/12/19 10:50:47;;;;;;;21.87;11.93;;;6.60;54.10;;;;;;4972052;28;46489;-64
2022/12/19 10:53:14;;;;;;;26.63;11.90;;;6.70;54.00;;;;;;4970595;28;46391;-64
2022/12/19 10:55:45;;;;;;;16.60;8.80;;;6.80;53.90;;;;;;4971583;28;47107;-64
2022/12/19 10:58:30;;;;;;;19.70;9.13;;;6.80;53.90;;;;;;4972859;28;46417;-65
2022/12/19 11:01:27;;;;;;;14.07;7.97;;;6.90;53.80;;;;;;4972510;28;46327;-64
2022/12/19 11:04:28;;;;;;;19.27;8.93;;;7.00;54.20;;;;;;4972816;28;45970;-65
2022/12/19 11:07:06;;;;;;;16.20;8.27;;;7.10;53.30;;;;;;4973408;28;46455;-64
2022/12/19 11:09:39;;;;;;;13.20;7.70;;;7.10;53.30;;;;;;4969936;28;45877;-63
2022/12/19 11:12:11;;;;;;;16.13;8.37;;;7.20;53.30;;;;;;4969417;28;46796;-64
2022/12/19 11:14:38;;;;;;;10.70;5.67;;;7.30;53.10;;;;;;4973150;28;46611;-67
2022/12/19 11:17:05;;;;;;;18.63;9.83;;;7.50;53.00;;;;;;4986619;28;48998;-66
2022/12/19 11:19:38;;;;;;;25.80;13.20;;;7.60;52.70;;;;;;4973119;28;46455;-67
2022/12/19 11:22:13;;;;;;;38.73;18.63;;;7.60;52.80;;;;;;4969563;28;46514;-66
2022/12/19 11:24:47;;;;;;;33.57;17.10;;;7.50;53.30;;;;;;4967261;28;46562;-67
2022/12/19 11:27:42;;;;;;;34.70;17.80;;;7.00;54.00;;;;;;4969849;28;46507;-67
2022/12/19 11:30:14;;;;;;;34.73;17.73;;;6.40;55.50;;;;;;4970405;28;46404;-66
2022/12/19 11:32:42;;;;;;;28.90;15.90;;;6.50;55.50;;;;;;4966724;28;46511;-67
2022/12/19 11:35:25;;;;;;;45.33;22.10;;;6.30;55.70;;;;;;4965570;28;46603;-65
2022/12/19 11:38:13;;;;;;;36.60;19.47;;;6.50;55.60;;;;;;4970028;28;46808;-63
2022/12/19 11:40:50;;;;;;;32.30;16.27;;;6.70;54.80;;;;;;4970372;28;46305;-64
2022/12/19 11:43:21;;;;;;;35.97;19.13;;;6.70;54.30;;;;;;4971427;28;46396;-63
2022/12/19 11:46:17;;;;;;;38.20;18.50;;;6.50;55.00;;;;;;4970309;28;46454;-63
2022/12/19 11:48:59;;;;;;;36.07;19.50;;;6.50;56.20;;;;;;4969436;28;47898;-64
2022/12/19 11:51:47;;;;;;;33.97;17.77;;;6.60;54.20;;;;;;4970077;28;46732;-63
2022/12/19 11:54:39;;;;;;;41.93;19.30;;;6.60;55.20;;;;;;4968502;28;46444;-63
2022/12/19 11:57:10;;;;;;;37.13;19.03;;;6.90;54.20;;;;;;4971206;28;46402;-63
2022/12/19 11:59:37;;;;;;;76.60;30.70;;;7.30;53.30;;;;;;4971426;28;46594;-63
2022/12/19 12:02:38;;;;;;;42.03;21.37;;;7.60;52.30;;;;;;4971757;28;46384;-63
2022/12/19 12:05:25;;;;;;;31.97;16.40;;;7.50;50.60;;;;;;4967682;28;46749;-65
2022/12/19 12:08:23;;;;;;;36.30;16.67;;;7.50;50.80;;;;;;4968752;28;46410;-66
2022/12/19 12:11:11;;;;;;;73.13;34.70;;;7.70;50.80;;;;;;4971749;28;46599;-64
2022/12/19 12:14:24;;;;;;;32.70;17.57;;;7.70;51.30;;;;;;4970393;28;46759;-65
2022/12/19 12:17:09;;;;;;;42.80;18.37;;;7.80;51.50;;;;;;4960722;28;46518;-65
2022/12/19 12:19:54;;;;;;;27.60;17.27;;;7.90;51.20;;;;;;4970258;28;46846;-65
2022/12/19 12:22:45;;;;;;;32.53;14.43;;;8.00;50.90;;;;;;4954829;28;46250;-67
2022/12/19 12:25:38;;;;;;;23.13;12.93;;;8.10;52.20;;;;;;4969668;28;45919;-64
2022/12/19 12:28:46;;;;;;;23.20;13.13;;;8.30;50.70;;;;;;4968031;28;46431;-66
2022/12/19 12:31:42;;;;;;;27.27;15.43;;;8.50;50.50;;;;;;4968753;28;46646;-66
2022/12/19 12:34:13;;;;;;;45.33;24.23;;;8.50;50.90;;;;;;4969422;28;46715;-66
2022/12/19 12:36:54;;;;;;;36.57;18.40;;;8.10;51.00;;;;;;4968009;28;46519;-66
2022/12/19 12:39:31;;;;;;;34.83;18.27;;;7.60;52.40;;;;;;4969399;28;46496;-65
2022/12/19 12:42:05;;;;;;;38.77;21.90;;;7.40;53.40;;;;;;4970028;28;46525;-66
2022/12/19 12:44:36;;;;;;;43.17;20.07;;;7.00;54.20;;;;;;4966473;28;46440;-66
2022/12/19 12:47:20;;;;;;;36.70;19.87;;;7.20;54.00;;;;;;4972093;28;46506;-66
2022/12/19 12:50:13;;;;;;;33.70;17.80;;;7.20;53.40;;;;;;4974417;28;46392;-65
2022/12/19 12:52:43;;;;;;;32.53;16.60;;;7.10;53.80;;;;;;4967253;28;46424;-66
2022/12/19 12:55:30;;;;;;;33.00;18.57;;;7.00;54.10;;;;;;4965679;28;46925;-65
2022/12/19 12:57:57;;;;;;;34.37;18.90;;;7.00;53.80;;;;;;4969840;28;46420;-65
2022/12/19 13:00:29;;;;;;;54.17;25.50;;;7.10;53.60;;;;;;4969485;28;46558;-65